Time;durP1;ratioP1;P1;durP2;ratioP2;P2;SDS_P1;SDS_P2;PMS_P1;PMS_P2;Temp;Humidity;BMP_temperature;BMP_pressure;BME280_temperature;BME280_humidity;BME280_pressure;Samples;Min_cycle;Max_cycle;Signal;HPM_P1;HPM_P2
2022/01/17 00:01:40;;;;;;;18.38;13.43;;;;;;;2.58;62.77;99990.94;5085236;28;20058;-66
2022/01/17 00:04:12;;;;;;;13.40;9.55;;;;;;;2.61;62.53;99964.72;5085450;28;20056;-66
2022/01/17 00:06:44;;;;;;;15.35;11.15;;;;;;;2.58;62.64;99956.91;5086222;28;20115;-66
2022/01/17 00:09:12;;;;;;;14.88;10.70;;;;;;;2.60;62.60;99969.09;5085265;28;20066;-66
2022/01/17 00:11:45;;;;;;;16.52;11.07;;;;;;;2.62;62.67;99985.66;5085148;28;20109;-66
2022/01/17 00:14:22;;;;;;;15.35;10.90;;;;;;;2.63;62.43;99982.16;5085281;28;20044;-66
2022/01/17 00:17:09;;;;;;;14.20;10.82;;;;;;;2.66;62.22;99992.56;5084992;28;20178;-66
2022/01/17 00:19:43;;;;;;;13.10;10.05;;;;;;;2.67;62.30;99996.91;5089067;28;20059;-66
2022/01/17 00:22:19;;;;;;;15.13;10.52;;;;;;;2.69;62.38;99982.06;5088466;28;20052;-66
2022/01/17 00:24:51;;;;;;;15.18;10.32;;;;;;;2.71;62.00;99975.06;5089009;28;20040;-66
2022/01/17 00:27:23;;;;;;;14.60;10.13;;;;;;;2.71;62.21;99985.53;5088888;28;20041;-66
2022/01/17 00:29:55;;;;;;;14.15;10.70;;;;;;;2.77;61.95;99977.59;5088856;28;20040;-66
2022/01/17 00:32:29;;;;;;;16.63;10.07;;;;;;;2.77;61.85;99974.97;5088833;28;20090;-66
2022/01/17 00:35:01;;;;;;;12.45;9.48;;;;;;;2.82;61.53;99964.44;5089100;28;20219;-66
2022/01/17 00:37:33;;;;;;;15.30;10.18;;;;;;;2.84;61.86;99974.00;5088994;28;20220;-66
2022/01/17 00:40:07;;;;;;;14.93;8.98;;;;;;;2.85;61.93;99975.72;5088945;28;20358;-66
2022/01/17 00:42:40;;;;;;;15.00;10.70;;;;;;;2.86;61.81;99968.75;5088529;28;20293;-66
2022/01/17 00:45:14;;;;;;;15.43;9.63;;;;;;;2.87;62.15;99957.38;5088811;28;20173;-66
2022/01/17 00:47:50;;;;;;;13.52;9.23;;;;;;;2.85;62.09;99959.16;5088787;28;20089;-66
2022/01/17 00:50:22;;;;;;;15.82;11.00;;;;;;;2.86;62.08;99951.28;5088760;28;20094;-66
2022/01/17 00:52:55;;;;;;;14.25;9.85;;;;;;;2.67;61.96;99904.44;5088362;28;20041;-66
2022/01/17 00:55:27;;;;;;;17.80;11.93;;;;;;;2.86;62.29;99927.72;5088232;28;20243;-66
2022/01/17 00:58:00;;;;;;;15.48;11.48;;;;;;;2.85;62.30;99923.38;5087519;28;20174;-66
2022/01/17 01:00:32;;;;;;;15.50;11.25;;;;;;;2.79;62.42;99920.84;5088290;28;20078;-65
2022/01/17 01:03:06;;;;;;;16.35;11.70;;;;;;;2.80;62.22;99924.31;5088180;28;20048;-66
2022/01/17 01:05:39;;;;;;;13.55;10.57;;;;;;;2.80;62.27;99934.78;5088143;28;20063;-65
2022/01/17 01:08:11;;;;;;;19.10;12.00;;;;;;;2.82;62.23;99925.16;5088396;28;20040;-66
2022/01/17 01:10:43;;;;;;;13.18;9.82;;;;;;;2.49;62.28;99863.72;5088348;28;20090;-66
2022/01/17 01:13:17;;;;;;;16.05;12.25;;;;;;;2.73;62.60;99913.06;5088280;28;20089;-66
2022/01/17 01:16:10;;;;;;;14.60;9.75;;;;;;;2.71;62.83;99880.84;5087970;28;20040;-66
2022/01/17 01:19:07;;;;;;;15.43;10.18;;;;;;;2.65;62.95;99891.38;5088218;28;20289;-66
2022/01/17 01:30:08;;;;;;;12.80;9.40;;;;;;;2.69;62.53;99868.66;5087300;28;20040;-66
2022/01/17 01:32:45;;;;;;;13.50;10.25;;;;;;;2.70;62.64;99860.78;5087707;28;20094;-66
2022/01/17 01:35:22;;;;;;;14.02;10.73;;;;;;;2.71;62.66;99852.03;5087930;28;20352;-66
2022/01/17 01:37:55;;;;;;;12.65;9.43;;;;;;;2.70;62.23;99841.59;5087564;28;20293;-66
2022/01/17 01:40:28;;;;;;;13.63;10.75;;;;;;;2.69;62.77;99855.56;5087828;28;20040;-66
2022/01/17 01:43:00;;;;;;;15.55;10.70;;;;;;;2.66;62.86;99853.00;5087693;28;20289;-66
2022/01/17 01:45:32;;;;;;;12.65;9.90;;;;;;;2.71;62.28;99841.56;5087478;28;20227;-65
2022/01/17 01:48:06;;;;;;;13.18;9.70;;;;;;;2.68;62.86;99836.38;5087656;28;20059;-66
2022/01/17 01:50:39;;;;;;;13.25;9.43;;;;;;;2.65;63.05;99831.19;5087630;28;20059;-66
2022/01/17 01:53:12;;;;;;;12.90;9.63;;;;;;;2.69;62.43;99832.88;5087624;28;20048;-66
2022/01/17 01:55:45;;;;;;;12.20;9.73;;;;;;;2.67;62.83;99829.41;5087517;28;20037;-66
2022/01/17 01:58:17;;;;;;;14.95;11.90;;;;;;;2.63;63.24;99837.34;5087166;28;20044;-66
2022/01/17 02:00:50;;;;;;;15.20;10.93;;;;;;;2.59;63.20;99841.75;5087189;28;20300;-66
2022/01/17 02:03:22;;;;;;;15.07;9.50;;;;;;;2.61;63.21;99826.03;5087044;28;20239;-66
2022/01/17 02:05:56;;;;;;;15.50;9.80;;;;;;;2.58;63.46;99826.09;5087082;28;20293;-66
2022/01/17 02:08:30;;;;;;;14.05;9.65;;;;;;;2.57;63.41;99830.44;5087291;28;20066;-66
2022/01/17 02:11:02;;;;;;;13.88;9.93;;;;;;;2.55;63.46;99845.31;5087236;28;20044;-66
2022/01/17 02:13:35;;;;;;;12.85;10.40;;;;;;;2.54;63.76;99839.22;5086146;28;20048;-66
2022/01/17 02:16:11;;;;;;;13.60;9.70;;;;;;;2.56;63.29;99828.72;5087152;28;20048;-66
2022/01/17 02:18:44;;;;;;;13.13;9.63;;;;;;;2.52;63.58;99821.81;5087081;28;20044;-66
2022/01/17 02:21:21;;;;;;;13.77;9.75;;;;;;;2.54;63.31;99827.88;5086774;28;20090;-66
2022/01/17 02:23:53;;;;;;;14.23;11.18;;;;;;;2.53;63.62;99827.00;5086675;28;20044;-66
2022/01/17 02:26:27;;;;;;;13.82;10.40;;;;;;;2.52;63.78;99819.19;5086920;28;20294;-66
2022/01/17 02:28:59;;;;;;;13.40;9.65;;;;;;;2.53;63.64;99828.75;5086586;28;20250;-66
2022/01/17 02:31:32;;;;;;;12.57;9.65;;;;;;;2.52;63.61;99825.28;5086555;28;20044;-66
2022/01/17 02:34:04;;;;;;;13.88;9.75;;;;;;;2.53;63.47;99820.91;5086766;28;20048;-65
2022/01/17 02:36:38;;;;;;;14.75;10.55;;;;;;;2.48;63.82;99831.44;5086686;28;20052;-66
2022/01/17 02:39:06;;;;;;;14.52;10.73;;;;;;;2.49;63.83;99850.63;5086370;28;20041;-66
2022/01/17 02:41:39;;;;;;;14.98;10.10;;;;;;;1.50;63.56;99663.78;5085742;28;20029;-65
2022/01/17 02:44:07;;;;;;;14.38;10.38;;;;;;;1.97;63.81;99736.31;5086055;28;20123;-66
2022/01/17 02:46:37;;;;;;;17.00;11.13;;;;;;;2.48;64.19;99843.66;5086765;28;20055;-66
2022/01/17 02:49:08;;;;;;;13.63;10.73;;;;;;;2.50;63.94;99847.13;5085675;28;20135;-66
2022/01/17 02:51:38;;;;;;;14.23;10.13;;;;;;;2.47;64.09;99815.78;5086262;28;20303;-66
2022/01/17 02:54:07;;;;;;;14.18;10.80;;;;;;;2.48;64.40;99822.75;5085675;28;20119;-66
2022/01/17 02:56:37;;;;;;;12.95;11.20;;;;;;;2.47;64.24;99821.00;5086271;28;20288;-66
2022/01/17 02:59:07;;;;;;;11.70;9.77;;;;;;;2.48;64.18;99797.44;5086477;28;20146;-65
2022/01/17 03:01:38;;;;;;;16.92;12.00;;;;;;;2.49;64.42;99793.06;5086146;28;20354;-65
2022/01/17 03:04:07;;;;;;;13.68;9.48;;;;;;;2.49;64.60;99787.84;5086051;28;20170;-65
2022/01/17 03:06:39;;;;;;;12.80;9.68;;;;;;;2.49;64.42;99798.31;5085351;28;20103;-65
2022/01/17 03:09:08;;;;;;;12.60;10.38;;;;;;;2.49;64.75;99803.53;5085807;28;20041;-65
2022/01/17 03:11:38;;;;;;;12.60;9.55;;;;;;;2.50;64.54;99794.81;5086276;28;20029;-65
2022/01/17 03:14:08;;;;;;;11.88;10.45;;;;;;;2.51;64.50;99801.75;5085708;28;20040;-65
2022/01/17 03:16:45;;;;;;;11.45;9.15;;;;;;;2.26;64.81;99754.19;5085947;28;20036;-65
2022/01/17 03:19:14;;;;;;;11.77;9.95;;;;;;;2.52;64.88;99790.41;5086165;28;20072;-65
2022/01/17 03:21:45;;;;;;;12.27;9.63;;;;;;;2.52;64.90;99785.19;5085852;28;20102;-65
2022/01/17 03:24:13;;;;;;;12.73;9.70;;;;;;;2.55;64.74;99798.22;5085463;28;20201;-65
2022/01/17 03:26:44;;;;;;;12.25;9.10;;;;;;;2.56;64.61;99805.16;5085778;28;20134;-65
2022/01/17 03:29:14;;;;;;;13.10;10.02;;;;;;;2.59;64.40;99785.94;5085746;28;20028;-65
2022/01/17 03:31:44;;;;;;;12.30;8.85;;;;;;;2.60;64.62;99791.16;5085751;28;20170;-65
2022/01/17 03:34:14;;;;;;;10.88;8.90;;;;;;;2.62;64.36;99778.91;5085732;28;20368;-65
2022/01/17 03:36:46;;;;;;;12.77;7.82;;;;;;;2.63;64.67;99759.69;5086006;28;20296;-65
2022/01/17 03:39:14;;;;;;;10.85;7.75;;;;;;;2.65;64.47;99746.59;5085371;28;20044;-65
2022/01/17 03:41:44;;;;;;;13.88;8.63;;;;;;;2.66;64.26;99743.94;5086955;28;20287;-65
2022/01/17 03:44:14;;;;;;;11.80;8.55;;;;;;;2.71;64.40;99749.09;5085239;28;20048;-65
2022/01/17 03:46:44;;;;;;;13.10;9.40;;;;;;;2.43;64.33;99697.25;5085390;28;20040;-65
2022/01/17 03:49:15;;;;;;;12.43;9.20;;;;;;;2.70;64.71;99752.59;5085452;28;20049;-65
2022/01/17 03:51:46;;;;;;;11.68;8.45;;;;;;;2.72;64.78;99759.53;5085107;28;20047;-65
2022/01/17 03:54:16;;;;;;;10.85;8.23;;;;;;;2.73;64.94;99748.19;5085150;28;20052;-65
2022/01/17 03:56:45;;;;;;;10.85;7.65;;;;;;;2.75;65.05;99748.16;5085229;28;20040;-65
2022/01/17 03:59:15;;;;;;;11.65;8.05;;;;;;;2.76;64.75;99762.97;5085476;28;20052;-65
2022/01/17 04:01:45;;;;;;;11.48;8.90;;;;;;;2.79;64.64;99739.38;5085172;28;20040;-65
2022/01/17 04:04:15;;;;;;;12.57;7.90;;;;;;;2.11;64.63;99640.22;5085583;28;20032;-65
2022/01/17 04:06:47;;;;;;;10.88;7.88;;;;;;;2.81;64.52;99743.69;5084618;28;20079;-65
2022/01/17 04:09:16;;;;;;;11.60;8.15;;;;;;;2.82;64.23;99732.31;5084518;28;20078;-65
2022/01/17 04:11:46;;;;;;;10.48;7.28;;;;;;;2.86;64.22;99723.53;5085022;28;20041;-65
2022/01/17 04:14:17;;;;;;;9.85;7.72;;;;;;;2.83;64.87;99739.28;5085369;28;20045;-64
2022/01/17 04:16:46;;;;;;;9.88;8.10;;;;;;;2.85;64.24;99716.56;5085320;28;20037;-65
2022/01/17 04:19:18;;;;;;;8.50;7.40;;;;;;;2.86;64.27;99720.03;5084497;28;20044;-65
2022/01/17 04:21:47;;;;;;;11.75;8.00;;;;;;;2.87;64.25;99727.00;5085223;28;20138;-65
2022/01/17 04:24:16;;;;;;;10.10;8.05;;;;;;;2.88;64.20;99726.97;5084823;28;20051;-65
2022/01/17 04:26:46;;;;;;;11.57;7.53;;;;;;;2.90;64.04;99737.41;5084352;28;20036;-65
2022/01/17 04:29:16;;;;;;;9.27;7.68;;;;;;;2.93;64.04;99747.84;5084892;28;20051;-65
2022/01/17 04:31:47;;;;;;;11.70;8.20;;;;;;;2.94;64.12;99759.16;5084810;28;20063;-65
2022/01/17 04:34:17;;;;;;;10.85;7.13;;;;;;;2.93;64.24;99778.38;5084846;28;20186;-65
2022/01/17 04:36:48;;;;;;;9.98;7.57;;;;;;;2.52;64.35;99644.75;5084818;28;20243;-65
2022/01/17 04:39:17;;;;;;;9.50;7.82;;;;;;;2.94;64.89;99746.06;5085120;28;20192;-65
2022/01/17 04:41:47;;;;;;;12.35;8.25;;;;;;;2.94;65.06;99765.28;5084981;28;20383;-65
2022/01/17 04:47:07;;;;;;;12.20;8.60;;;;;;;2.69;65.38;99699.41;5085002;28;20095;-65
2022/01/17 04:49:39;;;;;;;12.35;8.57;;;;;;;2.97;64.90;99735.56;5084972;28;20044;-65
2022/01/17 04:52:14;;;;;;;12.82;7.47;;;;;;;2.94;65.39;99744.31;5084639;28;20347;-65
2022/01/17 04:54:52;;;;;;;12.25;8.43;;;;;;;2.92;65.17;99730.41;5083822;28;20064;-65
2022/01/17 04:57:24;;;;;;;11.00;7.70;;;;;;;2.92;65.54;99726.91;5084641;28;20040;-65
2022/01/17 04:59:56;;;;;;;11.02;8.48;;;;;;;2.95;65.07;99729.47;5084857;28;20082;-65
2022/01/17 05:02:29;;;;;;;10.50;8.20;;;;;;;2.96;65.14;99718.13;5084576;28;20044;-65
2022/01/17 05:05:02;;;;;;;11.38;7.90;;;;;;;3.00;65.10;99743.34;5087603;28;20041;-65
2022/01/17 05:07:36;;;;;;;11.95;8.57;;;;;;;2.16;65.08;99559.09;5088307;28;20243;-65
2022/01/17 05:10:11;;;;;;;13.07;9.20;;;;;;;3.02;64.92;99702.28;5087576;28;20243;-65
2022/01/17 05:12:44;;;;;;;11.35;7.85;;;;;;;3.03;65.03;99714.50;5088094;28;20040;-65
2022/01/17 05:15:25;;;;;;;14.77;9.70;;;;;;;3.05;64.97;99707.47;5087218;28;20090;-64
2022/01/17 05:18:23;;;;;;;10.85;8.93;;;;;;;2.81;64.85;99657.28;5087950;28;20098;-65
2022/01/17 05:20:55;;;;;;;11.63;8.32;;;;;;;3.08;64.95;99718.75;5088128;28;20040;-65
2022/01/17 05:23:29;;;;;;;13.48;9.32;;;;;;;3.11;65.35;99723.94;5087803;28;20040;-65
2022/01/17 05:26:01;;;;;;;11.73;8.75;;;;;;;3.12;65.09;99722.16;5087980;28;20062;-65
2022/01/17 05:28:33;;;;;;;12.57;8.88;;;;;;;3.10;65.11;99742.28;5087182;28;20086;-66
2022/01/17 05:31:05;;;;;;;10.05;8.15;;;;;;;2.84;65.57;99709.59;5087535;28;20082;-65
2022/01/17 05:33:38;;;;;;;12.07;9.10;;;;;;;3.10;65.28;99777.19;5087724;28;20090;-65
2022/01/17 05:36:10;;;;;;;12.60;8.55;;;;;;;3.10;65.44;99751.00;5087630;28;20331;-65
2022/01/17 05:38:44;;;;;;;12.38;9.75;;;;;;;3.12;65.41;99779.78;5087622;28;20078;-65
2022/01/17 05:41:16;;;;;;;11.98;9.10;;;;;;;3.14;65.40;99771.00;5087532;28;20041;-65
2022/01/17 05:43:48;;;;;;;14.90;10.98;;;;;;;3.14;65.81;99784.09;5087660;28;20048;-65
2022/01/17 05:46:20;;;;;;;14.63;10.13;;;;;;;3.17;65.24;99780.56;5087585;28;20083;-65
2022/01/17 05:48:52;;;;;;;16.50;11.88;;;;;;;3.17;65.70;99754.38;5087377;28;20089;-65
2022/01/17 05:51:24;;;;;;;13.10;9.55;;;;;;;3.16;65.67;99763.13;5087494;28;20040;-65
2022/01/17 05:53:58;;;;;;;17.13;10.05;;;;;;;3.15;65.65;99754.41;5087153;28;20110;-65
2022/01/17 05:56:32;;;;;;;16.17;10.85;;;;;;;3.16;65.73;99734.31;5087415;28;20048;-65
2022/01/17 05:59:05;;;;;;;15.70;10.68;;;;;;;3.13;66.02;99750.09;5087434;28;20040;-66
2022/01/17 06:01:39;;;;;;;15.32;10.32;;;;;;;3.14;65.77;99725.63;5087358;28;20105;-65
2022/01/17 06:04:11;;;;;;;17.98;10.85;;;;;;;3.14;65.47;99742.19;5086992;28;20186;-65
2022/01/17 06:06:41;;;;;;;13.30;9.35;;;;;;;3.16;65.50;99726.47;5087008;28;20036;-65
2022/01/17 06:09:12;;;;;;;15.43;11.48;;;;;;;2.89;65.52;99693.81;5087200;28;20212;-65
2022/01/17 06:11:41;;;;;;;13.73;10.60;;;;;;;3.19;65.52;99692.34;5087477;28;20068;-65
2022/01/17 06:14:16;;;;;;;14.88;10.98;;;;;;;2.87;65.26;99638.84;5086807;28;20059;-65
2022/01/17 06:16:47;;;;;;;14.20;10.75;;;;;;;3.20;65.34;99694.06;5086633;28;20245;-65
2022/01/17 06:19:18;;;;;;;13.52;11.45;;;;;;;3.17;65.31;99665.31;5086858;28;20068;-65
2022/01/17 06:21:48;;;;;;;15.00;10.38;;;;;;;2.00;65.29;99481.84;5086540;28;20036;-65
2022/01/17 06:24:20;;;;;;;12.98;9.65;;;;;;;3.13;65.33;99655.81;5086744;28;20103;-65
2022/01/17 06:26:48;;;;;;;17.92;10.85;;;;;;;2.88;65.26;99596.06;5086899;28;20029;-65
2022/01/17 06:29:19;;;;;;;13.45;10.50;;;;;;;3.14;65.29;99657.53;5086731;28;20040;-65
2022/01/17 06:31:49;;;;;;;13.93;9.68;;;;;;;3.14;65.17;99660.16;5086554;28;20040;-65
2022/01/17 06:34:20;;;;;;;11.07;9.32;;;;;;;3.14;65.10;99662.78;5086490;28;20051;-66
2022/01/17 06:36:49;;;;;;;14.20;10.05;;;;;;;3.14;65.00;99639.19;5086739;28;20029;-66
2022/01/17 06:39:20;;;;;;;13.80;10.75;;;;;;;2.87;65.27;99583.03;5086325;28;20047;-66
2022/01/17 06:41:50;;;;;;;15.98;10.55;;;;;;;3.16;64.94;99689.78;5086336;28;20037;-66
2022/01/17 06:44:19;;;;;;;14.27;10.43;;;;;;;3.17;65.05;99653.09;5086102;28;20064;-66
2022/01/17 06:46:49;;;;;;;16.58;10.60;;;;;;;3.19;64.88;99685.34;5086422;28;20040;-66
2022/01/17 06:49:19;;;;;;;15.40;9.85;;;;;;;3.18;64.83;99703.72;5086258;28;20060;-66
2022/01/17 06:51:49;;;;;;;14.43;9.18;;;;;;;3.21;64.83;99698.41;5086037;28;20103;-66
2022/01/17 06:54:21;;;;;;;14.90;9.50;;;;;;;3.27;64.34;99706.16;5086204;28;20040;-65
2022/01/17 06:56:50;;;;;;;12.05;9.90;;;;;;;3.26;64.53;99719.28;5085174;28;20041;-65
2022/01/17 06:59:20;;;;;;;15.05;9.93;;;;;;;3.25;64.68;99728.91;5086032;28;20040;-66
2022/01/17 07:01:50;;;;;;;14.07;9.80;;;;;;;3.26;64.68;99733.25;5085061;28;20060;-66
2022/01/17 07:04:20;;;;;;;15.32;10.25;;;;;;;2.95;64.46;99640.47;5085959;28;20040;-65
2022/01/17 07:06:50;;;;;;;15.75;9.98;;;;;;;3.30;64.55;99726.19;5086273;28;20099;-65
2022/01/17 07:09:22;;;;;;;15.52;11.25;;;;;;;3.33;64.24;99692.94;5085345;28;20247;-65
2022/01/17 07:11:50;;;;;;;14.30;10.15;;;;;;;3.34;64.47;99685.94;5085998;28;20028;-64
2022/01/17 07:14:20;;;;;;;30.30;11.27;;;;;;;3.33;64.42;99732.22;5085466;28;20082;-65
2022/01/17 07:16:51;;;;;;;13.15;9.68;;;;;;;3.33;64.80;99692.06;5086283;28;20102;-65
2022/01/17 07:19:21;;;;;;;16.98;10.68;;;;;;;3.36;64.66;99685.00;5085579;28;20063;-64
2022/01/17 07:21:52;;;;;;;15.02;11.05;;;;;;;3.35;64.86;99698.13;5085520;28;20227;-65
2022/01/17 07:24:22;;;;;;;15.95;11.07;;;;;;;3.35;64.99;99713.84;5085475;28;20205;-65
2022/01/17 07:26:51;;;;;;;13.27;10.38;;;;;;;3.34;65.09;99744.44;5085030;28;20319;-65
2022/01/17 07:29:21;;;;;;;14.90;10.73;;;;;;;3.08;64.61;99696.94;5085419;28;20293;-65
2022/01/17 07:31:51;;;;;;;15.85;10.75;;;;;;;3.36;64.90;99737.41;5085353;28;20047;-65
2022/01/17 07:34:22;;;;;;;15.27;11.43;;;;;;;3.34;64.95;99739.19;5085904;28;20035;-64
2022/01/17 07:36:52;;;;;;;14.85;11.27;;;;;;;3.34;65.08;99765.41;5085189;28;20086;-65
2022/01/17 07:39:23;;;;;;;15.93;11.73;;;;;;;3.35;65.11;99781.97;5085555;28;20103;-65
2022/01/17 07:41:52;;;;;;;14.15;10.80;;;;;;;3.37;65.04;99811.63;5084664;28;20288;-65
2022/01/17 07:44:24;;;;;;;15.23;10.90;;;;;;;3.38;64.94;99763.59;5085222;28;20243;-65
2022/01/17 07:46:55;;;;;;;14.18;10.32;;;;;;;3.11;64.99;99710.84;5084903;28;20278;-65
2022/01/17 07:49:24;;;;;;;15.27;10.82;;;;;;;3.39;64.78;99718.16;5084945;28;20254;-65
2022/01/17 07:51:58;;;;;;;14.82;9.98;;;;;;;3.38;64.83;99646.53;5085231;28;20048;-65
2022/01/17 07:54:36;;;;;;;16.13;11.75;;;;;;;3.39;64.73;99643.03;5085119;28;20064;-65
2022/01/17 07:57:08;;;;;;;12.52;9.40;;;;;;;3.39;64.67;99645.66;5084130;28;20394;-65
2022/01/17 07:59:41;;;;;;;14.93;10.40;;;;;;;2.70;64.85;99538.88;5085376;28;20040;-65
2022/01/17 08:02:13;;;;;;;16.50;12.20;;;;;;;3.42;64.66;99665.69;5084407;28;20043;-65
2022/01/17 08:04:45;;;;;;;15.70;10.02;;;;;;;3.41;64.74;99737.31;5085440;28;20049;-65
2022/01/17 08:07:17;;;;;;;16.70;11.30;;;;;;;3.44;64.64;99697.94;5085218;28;20086;-65
2022/01/17 08:09:51;;;;;;;15.95;11.15;;;;;;;3.43;64.55;99694.47;5084914;28;20090;-65
2022/01/17 08:12:23;;;;;;;13.52;9.95;;;;;;;3.45;64.60;99697.91;5084909;28;20080;-65
2022/01/17 08:14:58;;;;;;;13.77;10.32;;;;;;;3.44;64.51;99669.13;5085284;28;20239;-65
2022/01/17 08:17:30;;;;;;;15.82;9.80;;;;;;;3.45;64.40;99657.75;5084932;28;20301;-65
2022/01/17 08:20:03;;;;;;;15.10;9.50;;;;;;;3.46;64.21;99622.78;5085175;28;20105;-65
2022/01/17 08:22:35;;;;;;;10.90;8.55;;;;;;;3.49;64.19;99625.34;5084951;28;20054;-65
2022/01/17 08:25:10;;;;;;;12.13;8.35;;;;;;;3.23;64.02;99580.53;5084758;28;20036;-65
2022/01/17 08:27:42;;;;;;;10.75;8.18;;;;;;;3.01;63.80;99519.91;5084923;28;20094;-66
2022/01/17 08:30:14;;;;;;;11.98;7.22;;;;;;;3.53;63.91;99621.75;5084781;28;20094;-65
2022/01/17 08:32:47;;;;;;;12.02;8.55;;;;;;;3.58;63.76;99624.28;5084759;28;20044;-65
2022/01/17 08:35:20;;;;;;;11.85;8.02;;;;;;;3.58;63.26;99664.44;5084984;28;20044;-66
2022/01/17 08:37:52;;;;;;;11.25;8.55;;;;;;;3.59;63.57;99612.91;5084843;28;20354;-66
2022/01/17 08:40:26;;;;;;;9.88;7.72;;;;;;;2.74;63.36;99482.94;5089072;28;20044;-66
2022/01/17 08:42:59;;;;;;;12.02;7.43;;;;;;;3.63;63.29;99643.38;5087846;28;20036;-66
2022/01/17 08:45:31;;;;;;;8.90;6.85;;;;;;;3.63;63.32;99639.00;5071858;28;20251;-65
2022/01/17 08:48:04;;;;;;;11.52;7.63;;;;;;;3.67;63.02;99666.88;5088322;28;20037;-66
2022/01/17 08:50:36;;;;;;;10.88;6.80;;;;;;;3.68;62.92;99642.38;5087586;28;20041;-66
2022/01/17 08:53:10;;;;;;;9.35;7.45;;;;;;;3.69;62.95;99646.72;5087673;28;20041;-65
2022/01/17 08:55:45;;;;;;;8.95;7.43;;;;;;;3.71;62.96;99630.97;5088332;28;20117;-66
2022/01/17 08:58:17;;;;;;;10.25;6.68;;;;;;;3.70;62.83;99637.97;5088349;28;20040;-66
2022/01/17 09:00:50;;;;;;;8.10;6.40;;;;;;;3.72;62.84;99667.63;5088447;28;20044;-66
2022/01/17 09:03:22;;;;;;;12.40;7.00;;;;;;;3.73;62.80;99627.41;5087769;28;20098;-66
2022/01/17 09:05:55;;;;;;;7.93;5.32;;;;;;;3.77;62.71;99672.78;5088365;28;20289;-66
2022/01/17 09:08:27;;;;;;;8.65;6.78;;;;;;;3.78;62.58;99664.88;5088500;28;20067;-65
2022/01/17 09:11:00;;;;;;;8.05;5.13;;;;;;;3.79;62.88;99626.41;5087919;28;20083;-66
2022/01/17 09:13:33;;;;;;;9.73;6.38;;;;;;;3.56;62.77;99611.22;5088438;28;20049;-65
2022/01/17 09:16:06;;;;;;;13.38;6.18;;;;;;;3.80;62.74;99659.59;5088114;28;20101;-66
2022/01/17 09:18:38;;;;;;;11.00;6.00;;;;;;;3.84;62.91;99619.28;5087868;28;20086;-66
2022/01/17 09:21:10;;;;;;;8.27;6.25;;;;;;;2.75;62.81;99429.72;5088300;28;20090;-66
2022/01/17 09:23:42;;;;;;;9.32;6.38;;;;;;;3.73;62.84;99588.09;5087833;28;20048;-66
2022/01/17 09:26:18;;;;;;;9.52;6.38;;;;;;;3.84;63.06;99577.34;5087625;28;20048;-66
2022/01/17 09:28:50;;;;;;;6.90;5.15;;;;;;;3.88;63.07;99612.22;5088208;28;20086;-66
2022/01/17 09:31:23;;;;;;;7.30;6.07;;;;;;;3.87;63.00;99607.88;5087812;28;20085;-66
2022/01/17 09:33:55;;;;;;;8.85;5.43;;;;;;;3.89;63.08;99621.81;5087572;28;20197;-65
2022/01/17 09:36:29;;;;;;;9.73;6.45;;;;;;;3.88;63.23;99599.09;5087654;28;20246;-66
2022/01/17 09:39:02;;;;;;;9.35;6.32;;;;;;;3.88;63.23;99594.72;5087475;28;20044;-66
2022/01/17 09:41:35;;;;;;;7.93;5.95;;;;;;;3.64;63.06;99553.38;5087525;28;20041;-66
2022/01/17 09:44:09;;;;;;;6.15;4.30;;;;;;;3.93;63.12;99605.97;5087514;28;20289;-66
2022/01/17 09:46:44;;;;;;;9.82;6.15;;;;;;;3.94;63.30;99598.97;5087375;28;20090;-66
2022/01/17 09:49:24;;;;;;;7.93;5.72;;;;;;;3.96;63.10;99595.41;5086996;28;20101;-66
2022/01/17 09:52:13;;;;;;;7.18;5.32;;;;;;;4.00;62.97;99562.94;5087612;28;20114;-65
2022/01/17 09:54:46;;;;;;;10.68;6.25;;;;;;;3.99;63.03;99574.34;5086974;28;20126;-66
2022/01/17 09:57:22;;;;;;;10.57;6.10;;;;;;;3.22;63.09;99446.06;5087249;28;20045;-66
2022/01/17 09:59:54;;;;;;;9.25;5.93;;;;;;;3.73;63.29;99554.00;5087236;28;20350;-66
2022/01/17 10:02:26;;;;;;;9.13;6.57;;;;;;;3.96;63.35;99566.56;5086376;28;20049;-66
2022/01/17 10:05:02;;;;;;;8.82;6.25;;;;;;;3.98;63.32;99556.88;5086963;28;20044;-66
2022/01/17 10:08:03;;;;;;;9.45;6.80;;;;;;;4.00;63.22;99615.41;5087296;28;20192;-66
2022/01/17 10:10:46;;;;;;;12.10;7.60;;;;;;;3.28;63.39;99448.53;5086580;28;20036;-67
2022/01/17 10:13:23;;;;;;;9.30;6.03;;;;;;;3.96;63.24;99532.47;5086871;28;20045;-66
2022/01/17 10:16:01;;;;;;;8.38;6.90;;;;;;;4.01;63.01;99533.22;5087088;28;20048;-65
2022/01/17 10:18:40;;;;;;;9.98;7.75;;;;;;;3.99;63.17;99514.03;5086070;28;20040;-66
2022/01/17 10:21:17;;;;;;;8.90;7.00;;;;;;;2.14;63.10;99241.91;5086600;28;20044;-66
2022/01/17 10:24:12;;;;;;;10.45;6.55;;;;;;;4.04;63.32;99504.28;5086912;28;20040;-66
2022/01/17 10:27:02;;;;;;;8.37;6.83;;;;;;;4.08;63.09;99539.16;5086474;28;20067;-66
2022/01/17 10:35:28;;;;;;;9.95;6.82;;;;;;;4.09;62.96;99498.91;5086551;28;20077;-66
2022/01/17 10:38:04;;;;;;;10.50;6.97;;;;;;;4.12;63.00;99499.69;5086300;28;20048;-66
2022/01/17 10:40:39;;;;;;;9.00;6.25;;;;;;;3.92;62.99;99446.91;5086204;28;20098;-66
2022/01/17 10:43:21;;;;;;;10.90;6.55;;;;;;;4.20;62.97;99512.63;5085320;28;20052;-66
2022/01/17 10:45:57;;;;;;;10.25;7.03;;;;;;;4.17;62.64;99471.56;5085979;28;20036;-66
2022/01/17 10:48:30;;;;;;;8.73;6.78;;;;;;;4.17;62.69;99487.31;5085614;28;20086;-66
2022/01/17 10:51:05;;;;;;;10.73;6.70;;;;;;;4.15;62.67;99486.50;5086235;28;20102;-66
2022/01/17 10:53:39;;;;;;;8.13;6.90;;;;;;;4.17;62.50;99470.72;5085666;28;20094;-65
2022/01/17 10:56:14;;;;;;;20.05;7.07;;;;;;;4.17;62.53;99476.81;5085771;28;20387;-66
2022/01/17 10:58:47;;;;;;;9.88;7.15;;;;;;;4.22;62.50;99460.97;5085646;28;20094;-65
2022/01/17 11:01:20;;;;;;;8.63;5.90;;;;;;;4.25;62.36;99446.91;5085062;28;20297;-65
2022/01/17 11:03:59;;;;;;;7.55;5.40;;;;;;;4.25;62.12;99470.53;5085714;28;20098;-66
2022/01/17 11:06:31;;;;;;;8.73;5.95;;;;;;;4.28;61.94;99478.31;5085687;28;20041;-66
2022/01/17 11:09:06;;;;;;;7.30;5.47;;;;;;;4.27;61.90;99480.09;5085693;28;20049;-66
2022/01/17 11:11:39;;;;;;;9.75;6.75;;;;;;;4.30;61.76;99426.66;5085598;28;20243;-66
2022/01/17 11:14:12;;;;;;;7.88;5.20;;;;;;;4.35;61.48;99437.88;5085243;28;20101;-65
2022/01/17 11:16:45;;;;;;;10.80;6.50;;;;;;;4.38;61.46;99443.03;5085114;28;20044;-66
2022/01/17 11:22:00;;;;;;;7.32;5.22;;;;;;;4.17;61.25;99368.41;5084232;28;20105;-66
2022/01/17 11:24:33;;;;;;;8.82;5.50;;;;;;;4.45;61.03;99434.09;5085480;28;20083;-66
2022/01/17 11:27:05;;;;;;;7.82;5.05;;;;;;;4.47;61.09;99412.16;5085131;28;20235;-66
2022/01/17 11:29:38;;;;;;;11.50;5.97;;;;;;;4.41;60.85;99401.84;5085322;28;20098;-66
2022/01/17 11:32:12;;;;;;;8.52;5.68;;;;;;;4.54;60.86;99417.22;5085095;28;20086;-66
2022/01/17 11:34:44;;;;;;;10.10;6.03;;;;;;;4.57;60.79;99449.47;5085232;28;20056;-66
2022/01/17 11:37:19;;;;;;;10.57;5.90;;;;;;;4.10;60.59;99298.66;5084967;28;20040;-66
2022/01/17 11:39:53;;;;;;;15.00;6.30;;;;;;;4.57;60.67;99402.22;5085413;28;20250;-66
2022/01/17 11:42:34;;;;;;;9.85;6.07;;;;;;;4.62;60.57;99375.84;5085224;28;20284;-66
2022/01/17 11:45:35;;;;;;;14.95;6.35;;;;;;;3.56;60.00;99205.00;5085366;28;20044;-65
2022/01/17 11:48:18;;;;;;;6.80;5.13;;;;;;;4.67;60.32;99394.94;5084734;28;20327;-66
2022/01/17 11:50:53;;;;;;;7.70;5.20;;;;;;;4.42;60.28;99351.06;5085189;28;20052;-66
2022/01/17 11:54:01;;;;;;;8.02;6.22;;;;;;;4.65;60.28;99431.75;5084941;28;20067;-66
2022/01/17 11:56:43;;;;;;;9.38;6.03;;;;;;;4.64;60.25;99424.78;5085221;28;20347;-66
2022/01/17 11:59:27;;;;;;;8.23;5.75;;;;;;;4.43;60.38;99352.78;5084043;28;20224;-66
2022/01/17 12:02:34;;;;;;;9.10;5.85;;;;;;;4.70;60.31;99415.84;5084924;28;20044;-66
2022/01/17 12:05:35;;;;;;;7.38;5.22;;;;;;;4.71;60.40;99415.81;5085430;28;20040;-66
2022/01/17 12:08:10;;;;;;;7.53;5.05;;;;;;;4.73;60.58;99389.50;5085157;28;20098;-66
2022/01/17 12:10:46;;;;;;;9.55;5.68;;;;;;;4.74;60.25;99341.34;5084930;28;20040;-66
2022/01/17 12:13:44;;;;;;;9.90;6.15;;;;;;;4.74;60.25;99391.22;5087167;28;20085;-66
2022/01/17 12:16:32;;;;;;;6.25;5.15;;;;;;;4.76;60.40;99332.50;5077154;28;20105;-66
2022/01/17 12:19:08;;;;;;;8.88;5.38;;;;;;;4.78;60.16;99408.59;5088622;28;20240;-66
2022/01/17 12:21:43;;;;;;;9.07;6.40;;;;;;;4.80;60.30;99362.16;5089426;28;20082;-67